TRI1029 YCFS-YGFN
Flight info
| Callsign | TRI1029 |
|---|---|
| Flight time | 0h 22m |
| Altitude | 5000 |
| Route | CFS DCT GFN |
| Aircraft | AT46/M-SDFGIRY/S |
Departure
| Time | 2026-04-12 00:14 |
|---|---|
| Airport | Coffs Harbour Airport (YCFS) |
Arrival
| Time | 2026-04-12 00:36 |
|---|---|
| Airport | Clarence Valley Regional Airport (YGFN) |
| Time | Latitude | Longitude | Altitude | Speed | Heading |
|---|---|---|---|---|---|
| 2026-04-11 23:57 | -30.32269 | 153.11676 | 23 ft | 0 kts | 341° |
| 2026-04-12 00:05 | -30.32265 | 153.11678 | 25 ft | 1 kts | 25° |
| 2026-04-12 00:06 | -30.32267 | 153.11692 | 24 ft | 3 kts | 128° |
| 2026-04-12 00:06 | -30.32283 | 153.11714 | 26 ft | 5 kts | 121° |
| 2026-04-12 00:06 | -30.32259 | 153.11755 | 23 ft | 9 kts | 34° |
| 2026-04-12 00:06 | -30.32256 | 153.11797 | 23 ft | 4 kts | 165° |
| 2026-04-12 00:07 | -30.32287 | 153.11791 | 25 ft | 11 kts | 199° |
| 2026-04-12 00:07 | -30.32361 | 153.11760 | 24 ft | 2 kts | 199° |
| 2026-04-12 00:07 | -30.32376 | 153.11754 | 24 ft | 2 kts | 199° |
| 2026-04-12 00:07 | -30.32395 | 153.11750 | 25 ft | 4 kts | 185° |
| 2026-04-12 00:08 | -30.32421 | 153.11764 | 25 ft | 6 kts | 134° |
| 2026-04-12 00:08 | -30.32459 | 153.11811 | 23 ft | 9 kts | 133° |
| 2026-04-12 00:08 | -30.32499 | 153.11866 | 24 ft | 9 kts | 131° |
| 2026-04-12 00:08 | -30.32531 | 153.11913 | 24 ft | 8 kts | 117° |
| 2026-04-12 00:09 | -30.32503 | 153.11982 | 26 ft | 14 kts | 39° |
| 2026-04-12 00:09 | -30.32433 | 153.12023 | 25 ft | 8 kts | 18° |
| 2026-04-12 00:09 | -30.32425 | 153.12049 | 25 ft | 3 kts | 151° |
| 2026-04-12 00:09 | -30.32432 | 153.12049 | 27 ft | 0 kts | 197° |
| 2026-04-12 00:10 | -30.32441 | 153.12041 | 25 ft | 0 kts | 221° |
| 2026-04-12 00:13 | -30.32445 | 153.12036 | 29 ft | 10 kts | 221° |
| 2026-04-12 00:13 | -30.32771 | 153.11713 | 24 ft | 108 kts | 219° |
| 2026-04-12 00:13 | -30.33435 | 153.11093 | 560 ft | 126 kts | 216° |
| 2026-04-12 00:14 | -30.34112 | 153.10451 | 1531 ft | 125 kts | 218° |
| 2026-04-12 00:14 | -30.34804 | 153.09704 | 1925 ft | 150 kts | 221° |
| 2026-04-12 00:14 | -30.35625 | 153.08843 | 2612 ft | 161 kts | 220° |
| 2026-04-12 00:14 | -30.36479 | 153.07998 | 3361 ft | 163 kts | 220° |
| 2026-04-12 00:15 | -30.37156 | 153.06990 | 3955 ft | 162 kts | 259° |
| 2026-04-12 00:15 | -30.36864 | 153.05785 | 4683 ft | 162 kts | 312° |
| 2026-04-12 00:15 | -30.35799 | 153.05296 | 5196 ft | 185 kts | 356° |
| 2026-04-12 00:15 | -30.34407 | 153.05774 | 5183 ft | 231 kts | 22° |
| 2026-04-12 00:16 | -30.32899 | 153.06674 | 5141 ft | 246 kts | 25° |
| 2026-04-12 00:16 | -30.31355 | 153.07587 | 5097 ft | 252 kts | 24° |
| 2026-04-12 00:16 | -30.29728 | 153.08359 | 5069 ft | 254 kts | 15° |
| 2026-04-12 00:16 | -30.28030 | 153.08904 | 5074 ft | 251 kts | 9° |
| 2026-04-12 00:17 | -30.26339 | 153.08840 | 5056 ft | 244 kts | 348° |
| 2026-04-12 00:17 | -30.24627 | 153.08555 | 5027 ft | 254 kts | 351° |
| 2026-04-12 00:17 | -30.22837 | 153.08329 | 5025 ft | 258 kts | 352° |
| 2026-04-12 00:17 | -30.21060 | 153.08142 | 5048 ft | 255 kts | 352° |
| 2026-04-12 00:18 | -30.19302 | 153.07950 | 5036 ft | 252 kts | 352° |
| 2026-04-12 00:18 | -30.17559 | 153.07756 | 5011 ft | 250 kts | 352° |
| 2026-04-12 00:18 | -30.15836 | 153.07556 | 4999 ft | 248 kts | 352° |
| 2026-04-12 00:18 | -30.14127 | 153.07344 | 5036 ft | 248 kts | 352° |
| 2026-04-12 00:19 | -30.12409 | 153.07133 | 5053 ft | 248 kts | 352° |
| 2026-04-12 00:19 | -30.10710 | 153.06912 | 5024 ft | 248 kts | 351° |
| 2026-04-12 00:19 | -30.08991 | 153.06693 | 5006 ft | 248 kts | 352° |
| 2026-04-12 00:19 | -30.07275 | 153.06477 | 5010 ft | 248 kts | 351° |
| 2026-04-12 00:20 | -30.05566 | 153.06261 | 5001 ft | 247 kts | 352° |
| 2026-04-12 00:20 | -30.03853 | 153.06059 | 5055 ft | 248 kts | 352° |
| 2026-04-12 00:20 | -30.02134 | 153.05859 | 5041 ft | 248 kts | 352° |
| 2026-04-12 00:20 | -30.00410 | 153.05659 | 5082 ft | 249 kts | 352° |
| 2026-04-12 00:21 | -29.98674 | 153.05457 | 5076 ft | 251 kts | 352° |
| 2026-04-12 00:21 | -29.96938 | 153.05252 | 5022 ft | 251 kts | 352° |
| 2026-04-12 00:21 | -29.95198 | 153.05053 | 5032 ft | 251 kts | 352° |
| 2026-04-12 00:21 | -29.93478 | 153.04860 | 5021 ft | 251 kts | 352° |
| 2026-04-12 00:22 | -29.91719 | 153.04654 | 5021 ft | 251 kts | 352° |
| 2026-04-12 00:22 | -29.89996 | 153.04453 | 5005 ft | 251 kts | 352° |
| 2026-04-12 00:22 | -29.88254 | 153.04245 | 4985 ft | 250 kts | 352° |
| 2026-04-12 00:22 | -29.86524 | 153.04040 | 4980 ft | 249 kts | 352° |
| 2026-04-12 00:23 | -29.84802 | 153.03835 | 4977 ft | 248 kts | 351° |
| 2026-04-12 00:23 | -29.83091 | 153.03622 | 4998 ft | 247 kts | 351° |
| 2026-04-12 00:23 | -29.81372 | 153.03416 | 4986 ft | 248 kts | 352° |
| 2026-04-12 00:23 | -29.79651 | 153.03213 | 4995 ft | 249 kts | 352° |
| 2026-04-12 00:24 | -29.77961 | 153.03017 | 4986 ft | 244 kts | 352° |
| 2026-04-12 00:24 | -29.76315 | 153.02823 | 4986 ft | 239 kts | 351° |
| 2026-04-12 00:24 | -29.75790 | 153.02761 | 4973 ft | 236 kts | 352° |
| 2026-04-12 00:24 | -29.74086 | 153.02808 | 4377 ft | 251 kts | 5° |
| 2026-04-12 00:25 | -29.72403 | 153.03086 | 4137 ft | 235 kts | 7° |
| 2026-04-12 00:25 | -29.70844 | 153.03366 | 3991 ft | 220 kts | 6° |
| 2026-04-12 00:25 | -29.69368 | 153.03604 | 3871 ft | 209 kts | 6° |
| 2026-04-12 00:25 | -29.67973 | 153.03824 | 3751 ft | 201 kts | 5° |
| 2026-04-12 00:26 | -29.66603 | 153.04042 | 3633 ft | 196 kts | 5° |
| 2026-04-12 00:26 | -29.65259 | 153.04258 | 3521 ft | 196 kts | 6° |
| 2026-04-12 00:26 | -29.63902 | 153.04456 | 3420 ft | 197 kts | 5° |
| 2026-04-12 00:26 | -29.62531 | 153.04650 | 3308 ft | 199 kts | 5° |
| 2026-04-12 00:27 | -29.61158 | 153.04839 | 3245 ft | 198 kts | 5° |
| 2026-04-12 00:27 | -29.59796 | 153.05025 | 3234 ft | 195 kts | 5° |
| 2026-04-12 00:27 | -29.58459 | 153.05205 | 3221 ft | 192 kts | 4° |
| 2026-04-12 00:27 | -29.57154 | 153.05384 | 3212 ft | 184 kts | 5° |
| 2026-04-12 00:28 | -29.55958 | 153.05697 | 3206 ft | 177 kts | 26° |
| 2026-04-12 00:28 | -29.55088 | 153.06670 | 3175 ft | 171 kts | 41° |
| 2026-04-12 00:28 | -29.54024 | 153.07070 | 3159 ft | 161 kts | 351° |
| 2026-04-12 00:28 | -29.53150 | 153.06389 | 3175 ft | 154 kts | 298° |
| 2026-04-12 00:29 | -29.53071 | 153.05200 | 3235 ft | 147 kts | 262° |
| 2026-04-12 00:29 | -29.52866 | 153.04125 | 3188 ft | 137 kts | 300° |
| 2026-04-12 00:29 | -29.52698 | 153.03037 | 3214 ft | 148 kts | 253° |
| 2026-04-12 00:29 | -29.53394 | 153.02280 | 3232 ft | 146 kts | 197° |
| 2026-04-12 00:30 | -29.54381 | 153.02473 | 3251 ft | 147 kts | 159° |
| 2026-04-12 00:30 | -29.55350 | 153.02907 | 3203 ft | 151 kts | 162° |
| 2026-04-12 00:30 | -29.56356 | 153.03296 | 3143 ft | 153 kts | 165° |
| 2026-04-12 00:30 | -29.57378 | 153.03657 | 3049 ft | 154 kts | 165° |
| 2026-04-12 00:31 | -29.58424 | 153.03964 | 2904 ft | 155 kts | 170° |
| 2026-04-12 00:31 | -29.59473 | 153.04167 | 2719 ft | 151 kts | 174° |
| 2026-04-12 00:31 | -29.60511 | 153.04279 | 2589 ft | 146 kts | 178° |
| 2026-04-12 00:31 | -29.61527 | 153.04327 | 2479 ft | 146 kts | 180° |
| 2026-04-12 00:32 | -29.62534 | 153.04329 | 2349 ft | 147 kts | 182° |
| 2026-04-12 00:32 | -29.63563 | 153.04285 | 2194 ft | 149 kts | 184° |
| 2026-04-12 00:32 | -29.64600 | 153.04221 | 2024 ft | 149 kts | 185° |
| 2026-04-12 00:32 | -29.65626 | 153.04147 | 1868 ft | 146 kts | 185° |
| 2026-04-12 00:33 | -29.66618 | 153.04059 | 1732 ft | 138 kts | 186° |
| 2026-04-12 00:33 | -29.67550 | 153.03966 | 1553 ft | 133 kts | 187° |
| 2026-04-12 00:33 | -29.68469 | 153.03863 | 1380 ft | 131 kts | 186° |
| 2026-04-12 00:33 | -29.69366 | 153.03764 | 1204 ft | 127 kts | 187° |
| 2026-04-12 00:34 | -29.70223 | 153.03677 | 1028 ft | 123 kts | 187° |
| 2026-04-12 00:34 | -29.71066 | 153.03600 | 856 ft | 119 kts | 186° |
| 2026-04-12 00:34 | -29.71882 | 153.03520 | 669 ft | 116 kts | 190° |
| 2026-04-12 00:34 | -29.72682 | 153.03435 | 482 ft | 116 kts | 189° |
| 2026-04-12 00:35 | -29.73471 | 153.03339 | 322 ft | 112 kts | 191° |
| 2026-04-12 00:35 | -29.74244 | 153.03254 | 213 ft | 112 kts | 187° |
| 2026-04-12 00:35 | -29.75001 | 153.03168 | 108 ft | 102 kts | 187° |
| 2026-04-12 00:35 | -29.75613 | 153.03106 | 94 ft | 60 kts | 184° |
| 2026-04-12 00:36 | -29.75913 | 153.03077 | 103 ft | 23 kts | 188° |
| 2026-04-12 00:36 | -29.75969 | 153.03021 | 105 ft | 8 kts | 269° |
| 2026-04-12 00:36 | -29.75968 | 153.03002 | 107 ft | 3 kts | 275° |
| 2026-04-12 00:36 | -29.75967 | 153.02942 | 105 ft | 7 kts | 255° |
| 2026-04-12 00:37 | -29.75971 | 153.02928 | 107 ft | 0 kts | 252° |